Time;durP1;ratioP1;P1;durP2;ratioP2;P2;SDS_P1;SDS_P2;PMS_P1;PMS_P2;Temp;Humidity;BMP_temperature;BMP_pressure;BME280_temperature;BME280_humidity;BME280_pressure;Samples;Min_cycle;Max_cycle;Signal;HPM_P1;HPM_P2
2022/07/01 06:58:52;;;;;;;2.53;0.85;;;;;;;10.98;100.00;93298.81;2094351;28;20036;-81
2022/07/01 06:59:53;;;;;;;2.95;0.32;;;;;;;10.89;100.00;93300.53;2084582;28;20037;-81
2022/07/01 07:00:54;;;;;;;1.20;0.20;;;;;;;10.89;100.00;93292.50;2080158;28;20163;-80
2022/07/01 07:01:55;;;;;;;1.00;0.32;;;;;;;10.97;100.00;93285.84;2081011;28;20029;-81
2022/07/01 07:02:56;;;;;;;0.40;0.40;;;;;;;10.99;100.00;93291.56;2080625;28;20694;-80
2022/07/01 07:04:03;;;;;;;1.52;0.50;;;;;;;10.87;100.00;93287.56;2081465;28;20017;-81
2022/07/01 07:05:11;;;;;;;1.67;0.65;;;;;;;10.77;100.00;93288.56;2091440;28;20521;-81
2022/07/01 07:06:16;;;;;;;0.50;0.45;;;;;;;10.82;100.00;93299.50;2084986;28;20021;-80
2022/07/01 07:07:17;;;;;;;1.15;0.45;;;;;;;10.89;100.00;93295.97;2089395;28;20513;-81
2022/07/01 07:08:18;;;;;;;0.63;0.50;;;;;;;10.87;100.00;93290.25;2091100;28;20100;-80
2022/07/01 07:09:19;;;;;;;1.17;0.68;;;;;;;10.89;100.00;93287.94;2089479;28;20492;-80
2022/07/01 07:10:21;;;;;;;3.40;0.50;;;;;;;10.83;100.00;93284.22;2097376;28;20107;-81
2022/07/01 07:11:22;;;;;;;0.60;0.60;;;;;;;10.93;100.00;93290.50;2097846;28;20039;-81
2022/07/01 07:12:23;;;;;;;2.67;0.55;;;;;;;10.94;100.00;93284.03;2097748;28;20032;-81
2022/07/01 07:13:24;;;;;;;0.63;0.60;;;;;;;10.88;100.00;93286.41;2097324;28;20024;-81
2022/07/01 07:14:25;;;;;;;0.68;0.55;;;;;;;10.81;100.00;93291.91;2080761;28;20136;-81
2022/07/01 07:15:26;;;;;;;1.48;0.40;;;;;;;10.89;100.00;93284.47;2088995;28;20017;-80
2022/07/01 07:16:27;;;;;;;0.68;0.50;;;;;;;11.03;100.00;93290.31;2073792;28;20036;-80
2022/07/01 07:17:28;;;;;;;2.03;0.40;;;;;;;10.91;100.00;93293.63;2073168;28;20053;-81
2022/07/01 07:18:30;;;;;;;0.40;0.40;;;;;;;10.73;100.00;93291.28;2089491;28;20405;-80
2022/07/01 07:19:31;;;;;;;2.55;0.40;;;;;;;10.79;100.00;93284.28;2097419;28;20135;-80
2022/07/01 07:20:32;;;;;;;0.30;0.30;;;;;;;10.84;100.00;93297.19;2097400;28;20043;-81
2022/07/01 07:21:33;;;;;;;2.55;0.47;;;;;;;10.79;100.00;93300.34;2088997;28;20074;-80
2022/07/01 07:22:36;;;;;;;2.58;0.50;;;;;;;10.66;100.00;93302.13;2096704;28;20890;-80
2022/07/01 07:23:38;;;;;;;2.15;0.60;;;;;;;10.67;100.00;93297.53;2084263;28;20017;-80
2022/07/01 07:24:39;;;;;;;0.60;0.45;;;;;;;10.69;100.00;93303.97;2073032;28;20026;-80
2022/07/01 07:25:41;;;;;;;4.03;0.73;;;;;;;10.62;100.00;93306.03;2082604;28;20051;-80
2022/07/01 07:26:43;;;;;;;0.40;0.40;;;;;;;10.67;100.00;93314.34;2084255;28;20120;-81
2022/07/01 07:27:46;;;;;;;2.60;0.60;;;;;;;10.59;100.00;93311.03;2076063;28;20080;-80
2022/07/01 07:28:47;;;;;;;1.65;0.40;;;;;;;10.65;100.00;93305.22;2089679;28;20064;-80
2022/07/01 07:29:48;;;;;;;1.55;0.60;;;;;;;10.65;100.00;93305.22;2071811;28;20025;-80
2022/07/01 07:30:49;;;;;;;1.63;0.40;;;;;;;10.68;100.00;93301.72;2080773;28;20025;-81
2022/07/01 07:31:50;;;;;;;4.38;0.70;;;;;;;10.81;100.00;93297.25;2089205;28;20445;-80
2022/07/01 07:32:51;;;;;;;0.95;0.52;;;;;;;10.70;100.00;93296.69;2097758;28;20016;-81
2022/07/01 07:33:52;;;;;;;2.83;1.30;;;;;;;10.71;100.00;93290.19;2080987;28;20025;-81
2022/07/01 07:34:53;;;;;;;2.35;1.90;;;;;;;10.75;100.00;93293.53;2091791;28;20095;-80
2022/07/01 07:35:54;;;;;;;4.25;1.05;;;;;;;10.71;100.00;93293.63;2089011;28;20029;-80
2022/07/01 07:36:55;;;;;;;1.13;0.60;;;;;;;10.64;100.00;93299.09;2081316;28;20064;-81
2022/07/01 07:37:59;;;;;;;1.83;0.57;;;;;;;10.80;100.00;93291.16;2080883;28;20025;-81
2022/07/01 07:39:00;;;;;;;7.78;0.40;;;;;;;10.70;100.00;93291.34;2087993;28;20220;-81
2022/07/01 07:40:03;;;;;;;2.88;0.60;;;;;;;10.66;100.00;93296.00;2097232;28;20558;-80
2022/07/01 07:41:32;;;;;;;0.60;0.60;;;;;;;10.76;100.00;93301.19;2089463;28;20379;-82
2022/07/01 07:42:33;;;;;;;0.75;0.50;;;;;;;10.58;100.00;93304.19;2092756;28;20021;-80
2022/07/01 07:43:34;;;;;;;2.17;0.90;;;;;;;10.53;100.00;93319.94;2080679;28;20446;-81
2022/07/01 07:44:37;;;;;;;2.00;0.40;;;;;;;10.74;100.00;93319.53;2097341;28;20033;-81
2022/07/01 07:45:38;;;;;;;0.82;0.30;;;;;;;10.77;100.00;93326.00;2105162;28;20020;-80
2022/07/01 07:46:39;;;;;;;1.10;0.30;;;;;;;10.84;100.00;93325.84;2102493;28;20066;-81
2022/07/01 07:47:46;;;;;;;2.60;0.30;;;;;;;10.79;100.00;93331.66;2083827;28;20024;-81
2022/07/01 07:48:47;;;;;;;1.17;0.32;;;;;;;10.70;100.00;93332.22;2089259;28;20029;-81
2022/07/01 07:49:48;;;;;;;0.47;0.30;;;;;;;10.77;100.00;93334.75;2091217;28;20079;-80
2022/07/01 07:50:49;;;;;;;5.40;0.45;;;;;;;10.67;100.00;93340.28;2082590;28;20470;-80
2022/07/01 07:51:51;;;;;;;2.67;0.40;;;;;;;10.63;100.00;93334.28;2087325;28;20020;-80
2022/07/01 07:52:53;;;;;;;1.70;0.40;;;;;;;10.66;100.00;93344.13;2086716;28;20033;-80
2022/07/01 07:53:55;;;;;;;1.33;0.50;;;;;;;10.63;100.00;93347.66;2105178;28;20683;-81
2022/07/01 07:54:56;;;;;;;1.83;0.40;;;;;;;10.63;100.00;93340.38;2093726;28;20409;-80
2022/07/01 07:55:58;;;;;;;1.05;0.40;;;;;;;10.69;100.00;93354.00;2084113;28;20078;-81
2022/07/01 07:57:00;;;;;;;1.70;0.50;;;;;;;10.58;100.00;93352.31;2085283;28;20466;-80
2022/07/01 07:58:01;;;;;;;0.85;0.40;;;;;;;10.54;100.00;93353.53;2063840;28;20042;-80
2022/07/01 07:59:06;;;;;;;0.47;0.30;;;;;;;10.61;100.00;93358.72;2073229;28;20041;-81
2022/07/01 08:00:12;;;;;;;0.85;0.40;;;;;;;10.75;100.00;93363.81;2073100;28;20519;-81
2022/07/01 08:01:16;;;;;;;0.20;0.20;;;;;;;10.85;100.00;93364.81;2067151;28;20038;-80
2022/07/01 08:02:19;;;;;;;0.90;0.40;;;;;;;10.83;100.00;93361.78;2072806;28;20049;-81
2022/07/01 08:03:20;;;;;;;1.90;0.30;;;;;;;10.81;100.00;93367.53;2081236;28;20027;-81
2022/07/01 08:04:21;;;;;;;2.25;0.40;;;;;;;10.85;100.00;93370.16;2086318;28;20369;-80
2022/07/01 08:05:22;;;;;;;1.33;0.55;;;;;;;11.00;100.00;93367.94;2080548;28;20072;-81
2022/07/01 08:06:23;;;;;;;0.45;0.30;;;;;;;10.95;100.00;93368.44;2087095;28;20588;-82
2022/07/01 08:07:24;;;;;;;0.45;0.32;;;;;;;10.92;100.00;93367.31;2088888;28;20389;-80
2022/07/01 08:08:27;;;;;;;1.17;0.40;;;;;;;11.02;100.00;93370.97;2088609;28;20028;-80
2022/07/01 08:09:28;;;;;;;1.67;0.60;;;;;;;10.88;100.00;93363.97;2096884;28;20020;-80
2022/07/01 08:10:29;;;;;;;4.80;0.77;;;;;;;10.92;100.00;93364.66;2085132;28;20087;-81
2022/07/01 08:11:30;;;;;;;1.60;0.40;;;;;;;10.86;100.00;93373.56;2072225;28;20033;-81
2022/07/01 08:12:31;;;;;;;1.02;0.30;;;;;;;10.83;100.00;93369.78;2084616;28;20132;-80
2022/07/01 08:13:32;;;;;;;1.45;0.30;;;;;;;10.65;100.00;93367.44;2088962;28;20072;-80
2022/07/01 08:14:33;;;;;;;2.60;0.40;;;;;;;10.71;100.00;93365.81;2088499;28;20036;-80
2022/07/01 08:15:34;;;;;;;0.73;0.30;;;;;;;10.70;100.00;93366.22;2088891;28;20055;-81
2022/07/01 08:16:35;;;;;;;0.50;0.30;;;;;;;10.78;100.00;93375.63;2080493;28;20026;-80
2022/07/01 08:17:37;;;;;;;4.25;0.50;;;;;;;10.69;100.00;93362.78;2073565;28;20077;-80
2022/07/01 08:18:38;;;;;;;1.48;0.43;;;;;;;10.62;100.00;93362.16;2064604;28;20050;-80
2022/07/01 08:19:39;;;;;;;0.90;0.60;;;;;;;10.64;100.00;93357.16;2064346;28;20415;-80
2022/07/01 08:20:40;;;;;;;3.97;0.50;;;;;;;10.58;100.00;93365.66;2066132;28;20034;-81
2022/07/01 08:21:41;;;;;;;0.52;0.50;;;;;;;10.72;100.00;93369.25;2073574;28;20026;-80
2022/07/01 08:22:42;;;;;;;0.70;0.47;;;;;;;10.64;100.00;93370.53;2089076;28;20037;-81
2022/07/01 08:23:43;;;;;;;2.72;0.43;;;;;;;10.71;100.00;93365.03;2086228;28;20021;-81
2022/07/01 08:24:44;;;;;;;3.33;0.50;;;;;;;10.61;100.00;93360.66;2080664;28;20025;-80
2022/07/01 08:25:47;;;;;;;1.60;0.75;;;;;;;10.68;100.00;93358.59;2080049;28;20493;-80
2022/07/01 08:26:48;;;;;;;1.75;0.57;;;;;;;10.76;100.00;93364.59;2064382;28;20030;-81
2022/07/01 08:27:49;;;;;;;1.88;0.57;;;;;;;10.77;100.00;93350.06;2064029;28;20021;-81
2022/07/01 08:28:50;;;;;;;0.68;0.43;;;;;;;10.80;100.00;93354.59;2074531;28;20064;-81
2022/07/01 08:29:51;;;;;;;0.47;0.45;;;;;;;10.78;100.00;93356.91;2065315;28;20037;-81
2022/07/01 08:30:52;;;;;;;0.90;0.40;;;;;;;10.80;100.00;93343.88;2081350;28;20040;-81
2022/07/01 08:31:53;;;;;;;0.30;0.30;;;;;;;10.85;100.00;93346.09;2080482;28;20027;-80
2022/07/01 08:32:54;;;;;;;1.50;0.38;;;;;;;10.90;100.00;93358.22;2080244;28;20021;-81
2022/07/01 08:33:55;;;;;;;0.50;0.32;;;;;;;10.81;100.00;93361.44;2080253;28;20029;-81
2022/07/01 08:34:56;;;;;;;2.15;0.30;;;;;;;10.88;100.00;93365.88;2063910;28;20019;-81
2022/07/01 08:35:57;;;;;;;2.05;0.63;;;;;;;10.93;100.00;93370.75;2083489;28;20125;-81
2022/07/01 08:36:58;;;;;;;0.68;0.38;;;;;;;10.94;100.00;93373.03;2081266;28;20036;-81
2022/07/01 08:37:59;;;;;;;1.20;0.47;;;;;;;10.99;100.00;93375.22;2073730;28;20028;-81
2022/07/01 08:39:00;;;;;;;0.68;0.57;;;;;;;10.94;100.00;93374.97;2080117;28;20029;-80
2022/07/01 08:40:01;;;;;;;1.80;0.50;;;;;;;10.92;100.00;93371.91;2081060;28;20025;-81
2022/07/01 08:41:04;;;;;;;1.90;0.40;;;;;;;10.93;100.00;93374.19;2069794;28;20028;-81
2022/07/01 08:42:07;;;;;;;0.40;0.40;;;;;;;11.09;100.00;93368.91;2067486;28;20038;-81
2022/07/01 08:43:08;;;;;;;1.05;0.40;;;;;;;11.10;100.00;93370.41;2065235;28;20030;-81
2022/07/01 08:44:09;;;;;;;0.50;0.50;;;;;;;11.24;100.00;93377.41;2072222;28;20053;-81
2022/07/01 08:45:09;;;;;;;0.52;0.50;;;;;;;11.12;100.00;93371.94;2077119;28;20063;-81
2022/07/01 08:46:11;;;;;;;0.40;0.40;;;;;;;11.10;100.00;93377.69;2079192;28;20108;-80
2022/07/01 08:47:13;;;;;;;0.90;0.52;;;;;;;11.17;100.00;93380.22;2080126;28;20453;-81
2022/07/01 08:48:14;;;;;;;2.33;0.65;;;;;;;11.16;100.00;93380.66;2073825;28;20026;-81
2022/07/01 08:49:17;;;;;;;1.55;0.60;;;;;;;11.22;100.00;93387.00;2074783;28;20022;-80
2022/07/01 08:50:18;;;;;;;0.55;0.52;;;;;;;11.22;100.00;93377.06;2092370;28;20108;-80
2022/07/01 08:51:19;;;;;;;2.20;0.60;;;;;;;11.25;100.00;93386.94;2076179;28;20064;-81
2022/07/01 08:52:20;;;;;;;1.40;0.50;;;;;;;11.25;100.00;93392.31;2085185;28;20036;-81
2022/07/01 08:53:21;;;;;;;0.60;0.60;;;;;;;11.32;100.00;93391.38;2083458;28;20029;-80
2022/07/01 08:54:23;;;;;;;1.02;0.63;;;;;;;11.51;100.00;93389.88;2075972;28;20037;-80
2022/07/01 08:55:24;;;;;;;0.80;0.52;;;;;;;11.60;100.00;93398.84;2093982;28;20020;-81
2022/07/01 08:56:45;;;;;;;0.85;0.65;;;;;;;11.71;100.00;93387.91;2091299;28;20035;-80
2022/07/01 08:57:47;;;;;;;0.63;0.52;;;;;;;11.62;100.00;93392.31;2087035;28;20075;-81
2022/07/01 08:58:49;;;;;;;0.80;0.63;;;;;;;11.71;100.00;93387.91;2077937;28;20021;-81
2022/07/01 09:00:07;;;;;;;2.97;0.45;;;;;;;11.59;100.00;93386.63;2079782;28;20041;-81
2022/07/01 09:01:29;;;;;;;1.05;0.43;;;;;;;11.97;100.00;93382.78;2068330;28;20041;-81
2022/07/01 09:02:51;;;;;;;1.73;0.50;;;;;;;11.89;100.00;93384.09;2066323;28;20026;-80
2022/07/01 09:03:54;;;;;;;0.73;0.47;;;;;;;12.18;100.00;93378.84;2069537;28;20032;-81
2022/07/01 09:05:05;;;;;;;0.75;0.57;;;;;;;12.30;100.00;93378.94;2077875;28;20025;-81
2022/07/01 09:06:19;;;;;;;0.60;0.50;;;;;;;12.45;100.00;93384.69;2080971;28;20040;-80
2022/07/01 09:07:33;;;;;;;0.22;0.22;;;;;;;12.51;100.00;93382.25;2073088;28;20510;-80
2022/07/01 09:08:34;;;;;;;2.45;0.50;;;;;;;12.48;100.00;93389.22;2073742;28;20048;-81
2022/07/01 09:09:39;;;;;;;0.95;0.35;;;;;;;12.53;100.00;93394.06;2075964;28;20056;-80
2022/07/01 09:10:40;;;;;;;0.63;0.35;;;;;;;12.37;100.00;93399.44;2080824;28;20405;-80
2022/07/01 09:11:55;;;;;;;2.75;0.40;;;;;;;12.49;100.00;93393.41;2072131;28;20022;-81
2022/07/01 09:12:56;;;;;;;1.65;0.45;;;;;;;12.44;100.00;93385.88;2073724;28;20029;-80
2022/07/01 09:14:15;;;;;;;1.65;0.60;;;;;;;12.32;100.00;93389.97;2072060;28;20018;-80
2022/07/01 09:15:31;;;;;;;2.25;0.40;;;;;;;12.40;100.00;93389.81;2077452;28;20493;-81
2022/07/01 09:16:46;;;;;;;1.13;0.40;;;;;;;12.67;100.00;93387.59;2099178;28;20104;-81
2022/07/01 09:17:47;;;;;;;0.30;0.30;;;;;;;12.46;100.00;93394.25;2090624;28;20048;-81
2022/07/01 09:19:03;;;;;;;0.70;0.40;;;;;;;12.55;100.00;93385.59;2072111;28;20104;-81
2022/07/01 09:20:30;;;;;;;3.58;0.70;;;;;;;12.38;100.00;93379.53;2078442;28;20040;-81
2022/07/01 09:21:31;;;;;;;4.38;0.70;;;;;;;12.47;100.00;93379.69;2083996;28;20853;-81
2022/07/01 09:22:34;;;;;;;0.95;0.50;;;;;;;12.47;100.00;93386.97;2092240;28;20512;-81
2022/07/01 09:23:35;;;;;;;0.93;0.50;;;;;;;12.51;100.00;93388.41;2083147;28;20022;-80
2022/07/01 09:24:42;;;;;;;0.85;0.45;;;;;;;12.47;100.00;93382.38;2063921;28;20033;-80
2022/07/01 09:25:48;;;;;;;2.42;0.70;;;;;;;12.49;100.00;93382.69;2065429;28;20395;-80
2022/07/01 09:27:22;;;;;;;0.93;0.63;;;;;;;12.46;100.00;93383.53;2087650;28;20401;-80
2022/07/01 09:28:25;;;;;;;0.63;0.40;;;;;;;12.33;100.00;93383.44;2096543;28;20052;-80
2022/07/01 09:29:33;;;;;;;2.95;0.88;;;;;;;12.42;100.00;93380.16;2096837;28;20090;-80
2022/07/01 09:30:35;;;;;;;0.55;0.52;;;;;;;12.52;100.00;93387.22;2082076;28;20032;-81
2022/07/01 09:31:49;;;;;;;1.25;0.63;;;;;;;12.47;100.00;93385.03;2075566;28;20037;-81
2022/07/01 09:33:16;;;;;;;0.93;0.52;;;;;;;12.35;100.00;93393.75;2073516;28;20603;-80
2022/07/01 09:34:17;;;;;;;1.92;0.52;;;;;;;12.46;100.00;93390.81;2066604;28;20052;-80
2022/07/01 09:35:24;;;;;;;0.70;0.60;;;;;;;12.45;100.00;93387.38;2075837;28;20033;-80
2022/07/01 09:36:25;;;;;;;0.73;0.47;;;;;;;12.37;100.00;93393.34;2088191;28;20024;-80
2022/07/01 09:37:26;;;;;;;1.88;0.70;;;;;;;12.45;100.00;93392.75;2072888;28;20061;-80
2022/07/01 09:38:27;;;;;;;0.75;0.40;;;;;;;12.51;100.00;93390.31;2071567;28;20028;-80
2022/07/01 09:39:28;;;;;;;1.55;0.93;;;;;;;12.58;100.00;93403.53;2071753;28;20030;-81
2022/07/01 09:40:47;;;;;;;0.75;0.55;;;;;;;12.48;100.00;93397.28;2072019;28;20499;-80
2022/07/01 09:41:48;;;;;;;0.70;0.40;;;;;;;12.51;100.00;93399.13;2097387;28;20528;-80
2022/07/01 09:42:50;;;;;;;0.45;0.45;;;;;;;12.33;100.00;93393.41;2090025;28;20119;-81
2022/07/01 09:43:51;;;;;;;1.90;0.50;;;;;;;12.23;100.00;93400.53;2075764;28;20116;-80
2022/07/01 09:44:56;;;;;;;1.70;0.40;;;;;;;12.14;100.00;93402.31;2072402;28;20026;-80
2022/07/01 09:46:08;;;;;;;1.60;0.50;;;;;;;12.26;100.00;93390.91;2071781;28;20022;-81
2022/07/01 09:47:09;;;;;;;0.98;0.60;;;;;;;12.21;100.00;93394.09;2064854;28;20879;-80
2022/07/01 09:48:12;;;;;;;1.55;0.57;;;;;;;12.56;100.00;93389.81;2063898;28;20041;-81
2022/07/01 09:49:13;;;;;;;1.75;0.80;;;;;;;12.69;100.00;93395.25;2074818;28;20022;-80
2022/07/01 09:50:17;;;;;;;1.08;0.50;;;;;;;12.89;100.00;93395.84;2096338;28;20024;-81
2022/07/01 09:51:18;;;;;;;1.65;0.73;;;;;;;12.88;100.00;93388.25;2080225;28;20663;-81
2022/07/01 09:52:19;;;;;;;0.95;0.50;;;;;;;12.93;100.00;93393.09;2083652;28;20044;-81
2022/07/01 09:53:20;;;;;;;0.68;0.40;;;;;;;12.79;100.00;93391.53;2072048;28;20029;-80
2022/07/01 09:54:22;;;;;;;7.35;0.75;;;;;;;12.96;100.00;93384.94;2080202;28;20029;-81
2022/07/01 09:55:23;;;;;;;1.08;0.57;;;;;;;13.09;100.00;93383.06;2083796;28;20037;-80
2022/07/01 09:56:24;;;;;;;0.77;0.30;;;;;;;13.25;100.00;93384.19;2071794;28;20029;-81
2022/07/01 09:57:25;;;;;;;1.73;0.40;;;;;;;13.69;100.00;93379.88;2055816;28;20113;-81
2022/07/01 09:58:26;;;;;;;1.08;0.40;;;;;;;13.79;100.00;93381.50;2071476;28;20025;-81
2022/07/01 09:59:27;;;;;;;1.83;0.40;;;;;;;13.72;100.00;93380.97;2071463;28;20116;-81
2022/07/01 10:00:32;;;;;;;0.60;0.30;;;;;;;13.80;100.00;93379.56;2073467;28;20475;-80
2022/07/01 10:01:33;;;;;;;0.85;0.32;;;;;;;13.88;100.00;93386.25;2080907;28;20040;-81
2022/07/01 10:02:35;;;;;;;0.40;0.30;;;;;;;14.00;100.00;93393.53;2089608;28;20554;-80
2022/07/01 10:03:41;;;;;;;0.40;0.30;;;;;;;13.83;100.00;93384.84;2075319;28;20024;-80
2022/07/01 10:04:48;;;;;;;1.17;0.60;;;;;;;13.76;100.00;93392.34;2069550;28;20022;-81
2022/07/01 10:05:53;;;;;;;0.60;0.40;;;;;;;13.80;100.00;93387.63;2066522;28;20046;-80
2022/07/01 10:07:01;;;;;;;1.40;0.50;;;;;;;13.58;100.00;93390.94;2065136;28;20071;-81
2022/07/01 10:08:26;;;;;;;0.30;0.30;;;;;;;13.37;100.00;93391.53;2074459;28;20028;-80
2022/07/01 10:09:40;;;;;;;0.35;0.30;;;;;;;13.32;100.00;93392.06;2073442;28;20021;-81
2022/07/01 10:11:01;;;;;;;0.60;0.35;;;;;;;13.34;100.00;93393.16;2073354;28;20038;-80
2022/07/01 10:12:11;;;;;;;3.60;0.70;;;;;;;13.16;100.00;93395.53;2086548;28;20553;-80
2022/07/01 10:13:21;;;;;;;1.85;0.60;;;;;;;13.21;100.00;93397.69;2077506;28;20037;-80
2022/07/01 10:14:22;;;;;;;0.40;0.40;;;;;;;13.17;100.00;93401.63;2076251;28;20120;-81
2022/07/01 10:15:24;;;;;;;1.63;0.50;;;;;;;13.22;100.00;93404.59;2079701;28;20494;-81
2022/07/01 10:16:25;;;;;;;0.55;0.38;;;;;;;12.97;100.00;93402.56;2087859;28;20037;-80
2022/07/01 10:17:31;;;;;;;0.60;0.30;;;;;;;12.93;100.00;93409.19;2077874;28;20041;-80
2022/07/01 10:18:32;;;;;;;0.73;0.32;;;;;;;13.04;100.00;93407.75;2064406;28;20578;-81
2022/07/01 10:19:34;;;;;;;0.47;0.35;;;;;;;13.02;100.00;93415.44;2063575;28;20036;-80
2022/07/01 10:20:36;;;;;;;0.32;0.30;;;;;;;13.07;100.00;93419.53;2063375;28;20029;-80
2022/07/01 10:21:37;;;;;;;1.08;0.20;;;;;;;12.97;100.00;93426.69;2071714;28;20022;-80
2022/07/01 10:22:40;;;;;;;0.50;0.30;;;;;;;12.97;100.00;93421.34;2071720;28;20076;-80
2022/07/01 10:23:43;;;;;;;0.98;0.30;;;;;;;13.14;100.00;93415.94;2069082;28;20017;-80
2022/07/01 10:24:44;;;;;;;1.40;0.30;;;;;;;13.18;100.00;93428.06;2064305;28;20065;-80
2022/07/01 10:25:47;;;;;;;1.50;0.20;;;;;;;13.34;100.00;93427.28;2071948;28;20033;-80
2022/07/01 10:26:48;;;;;;;1.65;0.30;;;;;;;13.42;100.00;93431.28;2065290;28;20786;-80
2022/07/01 10:28:16;;;;;;;1.95;0.30;;;;;;;13.34;100.00;93430.75;2088085;28;20036;-80
2022/07/01 10:29:46;;;;;;;0.52;0.30;;;;;;;13.59;100.00;93435.41;2083758;28;20029;-81
2022/07/01 10:30:52;;;;;;;0.70;0.22;;;;;;;13.76;100.00;93428.03;2063047;28;20029;-81
2022/07/01 10:31:53;;;;;;;0.65;0.30;;;;;;;13.89;100.00;93435.34;2070232;28;20124;-80
2022/07/01 10:32:54;;;;;;;1.80;0.30;;;;;;;13.79;100.00;93437.94;2087986;28;20013;-80
2022/07/01 10:33:59;;;;;;;0.40;0.30;;;;;;;13.84;100.00;93436.63;2100296;28;20043;-80
2022/07/01 10:35:05;;;;;;;1.13;0.40;;;;;;;13.86;100.00;93432.31;2095479;28;20489;-80
2022/07/01 10:36:33;;;;;;;0.40;0.30;;;;;;;14.21;100.00;93437.09;2076718;28;20411;-81
2022/07/01 10:37:34;;;;;;;0.90;0.15;;;;;;;14.06;100.00;93437.50;2062843;28;20046;-81
2022/07/01 10:38:55;;;;;;;0.52;0.20;;;;;;;14.10;100.00;93430.09;2079991;28;20080;-81
2022/07/01 10:40:01;;;;;;;1.08;0.30;;;;;;;14.31;100.00;93438.69;2079048;28;20028;-80
2022/07/01 10:41:10;;;;;;;1.27;0.40;;;;;;;14.25;100.00;93435.78;2078345;28;20034;-81
2022/07/01 10:42:11;;;;;;;0.45;0.22;;;;;;;14.54;100.00;93429.56;2067960;28;20027;-82
2022/07/01 10:43:17;;;;;;;0.50;0.30;;;;;;;14.64;100.00;93428.47;2086495;28;20101;-80
2022/07/01 10:44:20;;;;;;;1.48;0.20;;;;;;;14.79;100.00;93426.81;2082568;28;20486;-81
2022/07/01 10:45:21;;;;;;;0.30;0.28;;;;;;;14.78;100.00;93429.94;2082235;28;20025;-81
2022/07/01 10:47:04;;;;;;;0.73;0.20;;;;;;;14.75;100.00;93428.88;2081966;28;20060;-81
2022/07/01 10:48:22;;;;;;;1.05;0.30;;;;;;;14.93;100.00;93433.69;2045109;28;20054;-81
2022/07/01 10:49:41;;;;;;;1.98;0.50;;;;;;;15.23;100.00;93428.81;2081004;28;20084;-80
2022/07/01 10:50:45;;;;;;;0.38;0.28;;;;;;;15.20;100.00;93430.47;2092735;28;20049;-81
2022/07/01 10:51:53;;;;;;;1.08;0.43;;;;;;;15.23;100.00;93428.81;2082579;28;20593;-81
2022/07/01 10:52:59;;;;;;;0.90;0.40;;;;;;;15.07;100.00;93432.44;2084059;28;20036;-80
2022/07/01 10:54:00;;;;;;;0.73;0.35;;;;;;;15.08;100.00;93431.25;2090881;28;20017;-80
2022/07/01 10:55:04;;;;;;;1.13;0.30;;;;;;;15.21;100.00;93433.91;2082102;28;20021;-80
2022/07/01 10:56:05;;;;;;;0.60;0.40;;;;;;;15.22;100.00;93438.84;2067054;28;20426;-80
2022/07/01 10:57:15;;;;;;;0.80;0.40;;;;;;;15.15;100.00;93433.72;2073722;28;20061;-80
2022/07/01 10:58:20;;;;;;;0.35;0.30;;;;;;;15.20;100.00;93435.09;2076016;28;20047;-80
2022/07/01 10:59:22;;;;;;;0.88;0.43;;;;;;;15.08;100.00;93439.31;2071740;28;20681;-80
2022/07/01 11:00:29;;;;;;;3.70;0.60;;;;;;;15.18;100.00;93437.47;2080676;28;20088;-80
2022/07/01 11:01:30;;;;;;;1.27;0.38;;;;;;;14.82;100.00;93444.03;2075456;28;20022;-81
2022/07/01 11:02:37;;;;;;;0.90;0.40;;;;;;;15.00;100.00;93444.19;2082123;28;20017;-81
2022/07/01 11:03:39;;;;;;;2.08;0.30;;;;;;;14.86;100.00;93444.66;2074631;28;20037;-80
2022/07/01 11:04:40;;;;;;;0.65;0.40;;;;;;;14.74;100.00;93451.56;2073690;28;20043;-81
2022/07/01 11:05:43;;;;;;;0.82;0.60;;;;;;;14.99;100.00;93442.69;2065628;28;20466;-80
2022/07/01 11:06:43;;;;;;;1.13;0.40;;;;;;;14.89;100.00;93448.44;2074209;28;20028;-81
2022/07/01 11:07:46;;;;;;;0.82;0.50;;;;;;;14.89;100.00;93445.75;2081953;28;20083;-80
2022/07/01 11:08:50;;;;;;;0.63;0.40;;;;;;;15.06;100.00;93447.09;2065831;28;20026;-81
2022/07/01 11:09:51;;;;;;;2.45;0.30;;;;;;;15.00;100.00;93446.88;2066672;28;20045;-81
2022/07/01 11:10:57;;;;;;;1.10;0.32;;;;;;;15.24;100.00;93446.50;2065718;28;20426;-81
2022/07/01 11:11:58;;;;;;;0.52;0.30;;;;;;;15.23;100.00;93436.88;2066908;28;20026;-81
2022/07/01 11:13:00;;;;;;;1.77;0.55;;;;;;;15.05;100.00;93448.25;2065593;28;20403;-80
2022/07/01 11:14:01;;;;;;;0.75;0.30;;;;;;;15.12;100.00;93448.03;2065831;28;20022;-80
2022/07/01 11:15:06;;;;;;;0.30;0.30;;;;;;;15.43;100.00;93439.28;2073516;28;20038;-81
2022/07/01 11:16:09;;;;;;;2.15;0.30;;;;;;;15.24;100.00;93452.63;2090035;28;20016;-81
2022/07/01 11:17:10;;;;;;;4.90;0.40;;;;;;;15.27;100.00;93446.34;2081768;28;20096;-80
2022/07/01 11:18:13;;;;;;;0.88;0.30;;;;;;;15.05;100.00;93457.09;2073720;28;20018;-80
2022/07/01 11:19:17;;;;;;;0.70;0.30;;;;;;;15.10;100.00;93451.19;2081657;28;20060;-81
2022/07/01 11:20:22;;;;;;;1.88;0.50;;;;;;;15.02;100.00;93446.47;2065773;28;20033;-81
2022/07/01 11:21:24;;;;;;;1.05;0.40;;;;;;;14.98;100.00;93453.91;2074707;28;20487;-81
2022/07/01 11:22:27;;;;;;;2.00;0.52;;;;;;;14.97;100.00;93453.16;2073744;28;20032;-80
2022/07/01 11:23:28;;;;;;;0.73;0.20;;;;;;;15.09;100.00;93457.72;2066406;28;20840;-80
2022/07/01 11:24:29;;;;;;;0.43;0.32;;;;;;;14.97;100.00;93453.16;2073701;28;20049;-81
2022/07/01 11:25:31;;;;;;;0.30;0.30;;;;;;;14.58;100.00;93454.41;2065466;28;20471;-80
2022/07/01 11:26:32;;;;;;;1.80;0.43;;;;;;;14.78;100.00;93459.53;2065524;28;20036;-80
2022/07/01 11:27:34;;;;;;;0.93;0.52;;;;;;;14.84;100.00;93457.81;2065552;28;20081;-81
2022/07/01 11:28:41;;;;;;;0.85;0.50;;;;;;;14.77;100.00;93450.72;2065588;28;20030;-81
2022/07/01 11:29:42;;;;;;;0.65;0.40;;;;;;;14.91;100.00;93452.19;2067291;28;20085;-80
2022/07/01 11:30:43;;;;;;;1.30;0.30;;;;;;;15.06;100.00;93447.09;2073623;28;20034;-80
2022/07/01 11:31:45;;;;;;;1.42;0.50;;;;;;;15.24;100.00;93455.31;2065517;28;20068;-81
2022/07/01 11:32:49;;;;;;;2.15;0.57;;;;;;;15.57;100.00;93446.88;2065837;28;20026;-81
2022/07/01 11:33:50;;;;;;;0.65;0.40;;;;;;;15.35;100.00;93452.25;2073928;28;20018;-80
2022/07/01 11:34:52;;;;;;;1.10;0.50;;;;;;;15.56;100.00;93451.50;2073553;28;20044;-81
2022/07/01 11:40:17;;;;;;;0.65;0.52;;;;;;;15.79;100.00;93458.41;2062189;28;20065;-81
2022/07/01 11:41:24;;;;;;;1.88;0.40;;;;;;;15.79;100.00;93457.66;2069175;28;20538;-80
2022/07/01 11:42:26;;;;;;;0.43;0.32;;;;;;;15.23;100.00;93456.53;2083561;28;20033;-82
2022/07/01 11:43:33;;;;;;;1.27;0.50;;;;;;;15.18;100.00;93459.75;2089908;28;20712;-81
2022/07/01 11:44:38;;;;;;;1.30;0.40;;;;;;;15.04;100.00;93455.59;2082593;28;20021;-82
2022/07/01 11:45:41;;;;;;;0.60;0.55;;;;;;;14.83;100.00;93457.03;2066555;28;20018;-81
2022/07/01 11:46:49;;;;;;;1.17;0.50;;;;;;;14.99;100.00;93458.84;2080856;28;20034;-81
2022/07/01 11:47:51;;;;;;;0.30;0.30;;;;;;;15.02;100.00;93455.28;2074676;28;20057;-81
2022/07/01 11:48:53;;;;;;;2.22;0.75;;;;;;;15.01;100.00;93453.78;2088396;28;20048;-81
2022/07/01 11:49:55;;;;;;;0.90;0.45;;;;;;;15.30;100.00;93453.56;2087064;28;21760;-80
2022/07/01 11:50:57;;;;;;;0.30;0.30;;;;;;;15.33;100.00;93450.00;2065765;28;20459;-80
2022/07/01 11:52:05;;;;;;;0.68;0.55;;;;;;;15.31;100.00;93446.22;2076774;28;20029;-81
2022/07/01 11:53:07;;;;;;;2.83;0.50;;;;;;;14.91;100.00;93446.81;2082577;28;20517;-81
2022/07/01 11:54:21;;;;;;;1.40;0.47;;;;;;;14.74;100.00;93448.13;2090374;28;20053;-80
2022/07/01 11:55:22;;;;;;;3.55;0.47;;;;;;;14.56;100.00;93449.44;2089668;28;20074;-81
2022/07/01 11:56:39;;;;;;;1.25;0.57;;;;;;;14.46;100.00;93453.22;2081703;28;20076;-81
2022/07/01 11:57:40;;;;;;;0.73;0.40;;;;;;;14.45;100.00;93451.72;2077385;28;20026;-80
2022/07/01 11:58:50;;;;;;;0.88;0.43;;;;;;;14.76;100.00;93454.59;2081593;28;20441;-80
2022/07/01 11:59:53;;;;;;;1.27;0.57;;;;;;;14.67;100.00;93451.06;2091087;28;20486;-81
2022/07/01 12:00:54;;;;;;;1.63;0.52;;;;;;;14.78;100.00;93460.28;2089651;28;20033;-80
2022/07/01 12:01:55;;;;;;;3.28;0.70;;;;;;;14.84;100.00;93457.81;2073379;28;20026;-80